createdAt,value
2022-08-22T00:00:17.850Z, 36.69
2022-08-22T00:01:17.951Z, 36.45
2022-08-22T00:02:17.983Z, 36.62
2022-08-22T00:02:46.943Z, 37.19
2022-08-22T00:02:49.935Z, 37.34
2022-08-22T00:02:55.722Z, 36.63
2022-08-22T00:03:00.025Z, 37.27
2022-08-22T00:03:04.984Z, 38.17
2022-08-22T00:03:06.741Z, 36.52
2022-08-22T00:03:10.287Z, 36.57
2022-08-22T00:04:18.032Z, 36.63
2022-08-22T00:05:18.008Z, 36.60
2022-08-22T00:06:18.094Z, 36.62
2022-08-22T00:07:18.103Z, 36.61
2022-08-22T00:08:18.099Z, 36.63
2022-08-22T00:09:18.165Z, 36.72
2022-08-22T00:10:25.453Z, 36.50
2022-08-22T00:11:18.320Z, 38.92
2022-08-22T00:12:18.322Z, 38.88
2022-08-22T00:13:18.351Z, 38.72
2022-08-22T00:14:18.366Z, 38.77
2022-08-22T00:15:42.581Z, 38.97
2022-08-22T00:16:18.386Z, 38.86
2022-08-22T00:17:18.428Z, 38.96
2022-08-22T00:18:18.474Z, 38.98
2022-08-22T00:19:18.539Z, 39.07
2022-08-22T00:20:18.577Z, 38.91
2022-08-22T00:21:18.610Z, 39.06
2022-08-22T00:22:18.598Z, 38.85
2022-08-22T00:23:18.698Z, 38.83
2022-08-22T00:24:18.671Z, 39.06
2022-08-22T00:25:24.705Z, 38.91
2022-08-22T00:26:18.729Z, 39.21
2022-08-22T00:27:18.750Z, 38.88
2022-08-22T00:28:18.772Z, 38.91
2022-08-22T00:29:18.798Z, 38.88
2022-08-22T00:30:18.835Z, 38.90
2022-08-22T00:31:18.922Z, 38.93
2022-08-22T00:32:18.907Z, 38.98
2022-08-22T00:33:18.937Z, 38.84
2022-08-22T00:34:18.969Z, 38.83
2022-08-22T00:35:18.987Z, 39.04
2022-08-22T00:36:19.040Z, 38.99
2022-08-22T00:37:19.052Z, 38.98
2022-08-22T00:38:19.098Z, 38.93
2022-08-22T00:39:19.134Z, 38.84
2022-08-22T00:40:19.317Z, 38.92
2022-08-22T00:41:19.213Z, 38.90
2022-08-22T00:42:31.927Z, 39.00
2022-08-22T00:43:19.257Z, 39.10
2022-08-22T00:44:19.337Z, 39.01
2022-08-22T00:45:19.395Z, 38.97
2022-08-22T00:46:19.359Z, 39.04
2022-08-22T00:47:19.387Z, 38.97
2022-08-22T00:48:19.425Z, 38.92
2022-08-22T00:49:19.475Z, 38.96
2022-08-22T00:50:19.538Z, 38.91
2022-08-22T00:51:19.571Z, 39.04
2022-08-22T00:52:19.562Z, 38.92
2022-08-22T00:53:19.590Z, 38.91
2022-08-22T00:54:19.637Z, 39.00
2022-08-22T00:55:19.721Z, 39.28
2022-08-22T00:56:19.756Z, 39.07
2022-08-22T00:57:19.775Z, 39.06
2022-08-22T00:58:19.767Z, 38.82
2022-08-22T00:59:23.399Z, 38.99
2022-08-22T01:00:19.899Z, 38.84
2022-08-22T01:01:20.004Z, 39.01
2022-08-22T01:02:19.918Z, 38.86
2022-08-22T01:03:19.942Z, 38.90
2022-08-22T01:04:20.027Z, 38.88
2022-08-22T01:05:20.004Z, 38.94
2022-08-22T01:06:20.081Z, 38.92
2022-08-22T01:07:20.071Z, 38.94
2022-08-22T01:08:20.109Z, 38.90
2022-08-22T01:09:20.149Z, 39.04
2022-08-22T01:10:20.184Z, 38.99
2022-08-22T01:11:20.208Z, 39.02
2022-08-22T01:12:20.238Z, 39.07
2022-08-22T01:13:20.270Z, 38.95
2022-08-22T01:14:20.290Z, 38.98
2022-08-22T01:15:20.336Z, 39.03
2022-08-22T01:16:20.450Z, 39.26
2022-08-22T01:17:20.440Z, 39.10
2022-08-22T01:18:20.439Z, 39.05
2022-08-22T01:19:20.473Z, 39.06
2022-08-22T01:20:20.513Z, 38.81
2022-08-22T01:21:24.125Z, 38.86
2022-08-22T01:22:20.577Z, 38.94
2022-08-22T01:23:20.640Z, 39.09
2022-08-22T01:24:20.658Z, 38.87
2022-08-22T01:25:22.469Z, 39.00
2022-08-22T01:26:20.741Z, 38.80
2022-08-22T01:27:20.825Z, 39.04
2022-08-22T01:28:22.848Z, 38.88
2022-08-22T01:29:27.815Z, 38.96
2022-08-22T01:30:20.882Z, 38.88
2022-08-22T01:31:20.888Z, 39.03
2022-08-22T01:32:20.963Z, 38.93
2022-08-22T01:33:20.943Z, 39.08
2022-08-22T01:34:23.278Z, 39.08
2022-08-22T01:35:21.002Z, 39.26
2022-08-22T01:36:21.099Z, 39.03
2022-08-22T01:37:21.090Z, 38.93
2022-08-22T01:38:21.172Z, 39.12
2022-08-22T01:39:21.148Z, 38.98
2022-08-22T01:40:21.238Z, 39.02
2022-08-22T01:41:21.209Z, 39.04
2022-08-22T01:42:21.234Z, 39.08
2022-08-22T01:43:21.279Z, 39.26
2022-08-22T01:44:21.305Z, 38.99
2022-08-22T01:45:21.360Z, 39.05
2022-08-22T01:46:21.583Z, 39.03
2022-08-22T01:47:21.434Z, 39.01
2022-08-22T01:48:21.477Z, 38.98
2022-08-22T01:49:21.555Z, 38.98
2022-08-22T01:50:21.555Z, 39.08
2022-08-22T01:51:21.565Z, 39.08
2022-08-22T01:52:21.591Z, 38.99
2022-08-22T01:53:21.624Z, 39.04
2022-08-22T01:54:21.656Z, 39.06
2022-08-22T01:55:21.719Z, 38.89
2022-08-22T01:56:21.795Z, 39.09
2022-08-22T01:57:21.821Z, 39.00
2022-08-22T01:58:21.818Z, 39.12
2022-08-22T01:59:21.879Z, 38.01
2022-08-22T02:00:35.150Z, 38.10
2022-08-22T02:01:21.982Z, 37.96
2022-08-22T02:02:21.934Z, 38.05
2022-08-22T02:03:22.039Z, 38.03
2022-08-22T02:04:22.076Z, 38.33
2022-08-22T02:05:22.067Z, 38.16
2022-08-22T02:06:22.162Z, 38.08
2022-08-22T02:07:26.464Z, 38.19
2022-08-22T02:08:22.214Z, 38.15
2022-08-22T02:09:22.187Z, 38.20
2022-08-22T02:10:22.199Z, 38.21
2022-08-22T02:11:22.247Z, 38.35
2022-08-22T02:12:22.350Z, 38.20
2022-08-22T02:13:22.392Z, 38.20
2022-08-22T02:14:22.411Z, 38.27
2022-08-22T02:15:22.388Z, 38.06
2022-08-22T02:16:22.408Z, 38.19
2022-08-22T02:17:22.466Z, 38.21
2022-08-22T02:18:22.552Z, 38.08
2022-08-22T02:19:22.537Z, 38.09
2022-08-22T02:20:22.570Z, 38.31
2022-08-22T02:21:22.609Z, 38.16
2022-08-22T02:22:22.629Z, 38.12
2022-08-22T02:23:22.726Z, 38.28
2022-08-22T02:24:22.723Z, 38.26
2022-08-22T02:25:22.740Z, 38.25
2022-08-22T02:26:22.783Z, 38.14
2022-08-22T02:27:22.886Z, 38.09
2022-08-22T02:28:22.864Z, 38.29
2022-08-22T02:29:22.947Z, 38.26
2022-08-22T02:30:22.964Z, 38.36
2022-08-22T02:31:22.972Z, 38.33
2022-08-22T02:32:23.069Z, 38.30
2022-08-22T02:33:23.002Z, 38.24
2022-08-22T02:34:23.043Z, 38.23
2022-08-22T02:35:23.086Z, 38.00
2022-08-22T02:36:23.104Z, 38.20
2022-08-22T02:37:23.146Z, 38.15
2022-08-22T02:38:23.165Z, 38.05
2022-08-22T02:39:23.220Z, 38.07
2022-08-22T02:40:23.367Z, 38.03
2022-08-22T02:41:23.338Z, 38.03
2022-08-22T02:42:23.335Z, 38.09
2022-08-22T02:43:23.433Z, 38.12
2022-08-22T02:44:23.409Z, 38.19
2022-08-22T02:45:23.473Z, 38.06
2022-08-22T02:46:23.507Z, 38.00
2022-08-22T02:47:23.533Z, 38.11
2022-08-22T02:48:23.527Z, 38.27
2022-08-22T02:49:23.570Z, 38.25
2022-08-22T02:50:23.625Z, 38.26
2022-08-22T02:51:23.689Z, 38.10
2022-08-22T02:52:23.702Z, 38.18
2022-08-22T02:53:23.700Z, 38.38
2022-08-22T02:54:23.768Z, 38.37
2022-08-22T02:55:23.805Z, 38.25
2022-08-22T02:56:23.769Z, 38.19
2022-08-22T02:57:23.821Z, 38.24
2022-08-22T02:58:23.858Z, 38.14
2022-08-22T02:59:23.945Z, 38.26
2022-08-22T03:00:30.891Z, 38.28
2022-08-22T03:01:23.987Z, 38.14
2022-08-22T03:02:24.128Z, 38.00
2022-08-22T03:03:24.035Z, 38.07
2022-08-22T03:04:24.048Z, 37.96
2022-08-22T03:05:24.087Z, 38.27
2022-08-22T03:06:24.130Z, 38.04
2022-08-22T03:07:24.175Z, 38.28
2022-08-22T03:08:24.169Z, 38.34
2022-08-22T03:09:24.272Z, 38.11
2022-08-22T03:10:24.256Z, 38.28
2022-08-22T03:11:24.284Z, 38.25
2022-08-22T03:12:24.326Z, 38.18
2022-08-22T03:13:24.358Z, 38.20
2022-08-22T03:14:24.436Z, 38.16
2022-08-22T03:15:24.476Z, 38.17
2022-08-22T03:16:24.463Z, 38.23
2022-08-22T03:17:24.493Z, 38.24
2022-08-22T03:18:24.527Z, 38.22
2022-08-22T03:19:24.559Z, 38.26
2022-08-22T03:20:24.654Z, 38.27
2022-08-22T03:21:24.647Z, 38.28
2022-08-22T03:22:24.719Z, 38.28
2022-08-22T03:23:24.764Z, 38.24
2022-08-22T03:24:24.793Z, 38.40
2022-08-22T03:25:24.789Z, 38.32
2022-08-22T03:26:24.838Z, 38.16
2022-08-22T03:27:32.743Z, 38.33
2022-08-22T03:28:24.889Z, 38.25
2022-08-22T03:29:24.921Z, 38.26
2022-08-22T03:30:24.966Z, 38.20
2022-08-22T03:31:25.083Z, 38.23
2022-08-22T03:32:25.068Z, 38.44
2022-08-22T03:33:25.069Z, 38.26
2022-08-22T03:34:25.124Z, 38.17
2022-08-22T03:35:25.129Z, 38.28
2022-08-22T03:36:25.158Z, 38.34
2022-08-22T03:37:25.214Z, 38.13
2022-08-22T03:38:25.313Z, 38.35
2022-08-22T03:39:25.298Z, 38.20
2022-08-22T03:40:31.455Z, 38.17
2022-08-22T03:41:25.346Z, 38.28
2022-08-22T03:42:25.421Z, 38.14
2022-08-22T03:43:25.422Z, 38.20
2022-08-22T03:44:25.418Z, 38.28
2022-08-22T03:45:25.525Z, 38.16
2022-08-22T03:46:25.550Z, 37.96
2022-08-22T03:47:25.529Z, 38.24
2022-08-22T03:48:25.560Z, 38.30
2022-08-22T03:49:25.591Z, 38.09
2022-08-22T03:50:25.677Z, 38.24
2022-08-22T03:51:25.700Z, 38.16
2022-08-22T03:52:25.671Z, 38.26
2022-08-22T03:53:25.769Z, 38.40
2022-08-22T03:54:25.809Z, 38.20
2022-08-22T03:55:25.796Z, 38.24
2022-08-22T03:56:25.819Z, 38.21
2022-08-22T03:57:25.845Z, 38.20
2022-08-22T03:58:27.905Z, 38.27
2022-08-22T03:59:25.890Z, 38.38
2022-08-22T04:00:26.057Z, 38.19
2022-08-22T04:01:26.021Z, 38.32
2022-08-22T04:02:43.501Z, 38.40
2022-08-22T04:03:26.039Z, 38.38
2022-08-22T04:04:26.079Z, 38.14
2022-08-22T04:05:26.122Z, 38.23
2022-08-22T04:06:26.151Z, 38.23
2022-08-22T04:07:31.699Z, 38.19
2022-08-22T04:08:26.559Z, 38.08
2022-08-22T04:09:26.252Z, 38.15
2022-08-22T04:10:26.333Z, 38.26
2022-08-22T04:11:26.406Z, 38.20
2022-08-22T04:12:26.381Z, 38.25
2022-08-22T04:13:26.389Z, 38.25
2022-08-22T04:14:26.417Z, 38.34
2022-08-22T04:15:26.450Z, 38.34
2022-08-22T04:16:26.488Z, 38.20
2022-08-22T04:17:26.526Z, 38.16
2022-08-22T04:18:26.614Z, 38.21
2022-08-22T04:19:26.594Z, 38.17
2022-08-22T04:20:26.621Z, 38.20
2022-08-22T04:21:26.669Z, 38.26
2022-08-22T04:22:26.665Z, 38.24
2022-08-22T04:23:26.699Z, 38.19
2022-08-22T04:24:26.761Z, 38.18
2022-08-22T04:25:26.783Z, 38.28
2022-08-22T04:26:26.882Z, 38.16
2022-08-22T04:27:26.875Z, 38.30
2022-08-22T04:28:26.910Z, 38.46
2022-08-22T04:29:26.956Z, 38.28
2022-08-22T04:30:26.950Z, 38.37
2022-08-22T04:31:27.073Z, 38.43
2022-08-22T04:32:27.090Z, 38.47
2022-08-22T04:33:27.144Z, 38.50
2022-08-22T04:34:27.172Z, 38.50
2022-08-22T04:35:27.150Z, 38.35
2022-08-22T04:36:27.163Z, 38.19
2022-08-22T04:37:27.256Z, 38.46
2022-08-22T04:38:27.241Z, 38.43
2022-08-22T04:39:27.273Z, 38.46
2022-08-22T04:40:27.318Z, 38.35
2022-08-22T04:41:27.420Z, 38.27
2022-08-22T04:42:33.306Z, 38.39
2022-08-22T04:43:27.405Z, 38.40
2022-08-22T04:44:27.459Z, 38.34
2022-08-22T04:45:27.457Z, 38.39
2022-08-22T04:46:35.141Z, 38.28
2022-08-22T04:47:27.558Z, 38.42
2022-08-22T04:48:27.570Z, 38.47
2022-08-22T04:49:27.760Z, 38.59
2022-08-22T04:50:27.765Z, 38.45
2022-08-22T04:51:27.727Z, 38.23
2022-08-22T04:52:29.527Z, 38.43
2022-08-22T04:53:27.767Z, 38.37
2022-08-22T04:54:27.788Z, 38.28
2022-08-22T04:55:27.796Z, 38.18
2022-08-22T04:56:27.894Z, 38.13
2022-08-22T04:57:27.873Z, 38.36
2022-08-22T04:58:27.917Z, 38.36
2022-08-22T04:59:27.912Z, 38.28
2022-08-22T05:00:27.945Z, 38.30
2022-08-22T05:01:28.027Z, 38.37
2022-08-22T05:02:28.009Z, 38.25
2022-08-22T05:03:28.055Z, 38.43
2022-08-22T05:04:28.071Z, 38.30
2022-08-22T05:05:28.164Z, 38.23
2022-08-22T05:06:28.172Z, 38.40
2022-08-22T05:07:28.167Z, 38.24
2022-08-22T05:08:28.233Z, 38.34
2022-08-22T05:09:28.278Z, 38.44
2022-08-22T05:10:28.268Z, 38.32
2022-08-22T05:11:30.274Z, 38.42
2022-08-22T05:12:29.317Z, 38.37
2022-08-22T05:13:28.398Z, 38.40
2022-08-22T05:14:28.370Z, 38.44
2022-08-22T05:15:28.411Z, 38.58
2022-08-22T05:16:28.527Z, 38.41
2022-08-22T05:17:28.494Z, 38.24
2022-08-22T05:18:29.730Z, 38.37
2022-08-22T05:19:31.892Z, 38.31
2022-08-22T05:20:28.584Z, 38.25
2022-08-22T05:21:28.616Z, 38.40
2022-08-22T05:22:28.699Z, 38.52
2022-08-22T05:23:28.691Z, 38.43
2022-08-22T05:24:28.710Z, 38.44
2022-08-22T05:25:28.752Z, 38.33
2022-08-22T05:26:28.790Z, 38.48
2022-08-22T05:27:28.824Z, 38.33
2022-08-22T05:28:28.854Z, 38.65
2022-08-22T05:29:28.875Z, 38.49
2022-08-22T05:30:28.938Z, 38.38
2022-08-22T05:31:28.934Z, 38.56
2022-08-22T05:32:28.968Z, 38.48
2022-08-22T05:33:29.033Z, 38.53
2022-08-22T05:34:29.032Z, 38.39
2022-08-22T05:35:29.075Z, 38.52
2022-08-22T05:36:29.085Z, 38.59
2022-08-22T05:37:29.148Z, 38.47
2022-08-22T05:38:29.200Z, 38.44
2022-08-22T05:39:29.179Z, 38.45
2022-08-22T05:40:29.229Z, 38.50
2022-08-22T05:41:29.253Z, 38.38
2022-08-22T05:42:29.297Z, 38.63
2022-08-22T05:43:29.351Z, 38.45
2022-08-22T05:44:29.351Z, 38.58
2022-08-22T05:45:29.386Z, 38.37
2022-08-22T05:46:29.421Z, 38.43
2022-08-22T05:47:29.408Z, 38.37
2022-08-22T05:48:29.452Z, 38.51
2022-08-22T05:49:29.494Z, 38.53
2022-08-22T05:50:29.582Z, 38.66
2022-08-22T05:51:29.562Z, 38.61
2022-08-22T05:52:29.658Z, 38.52
2022-08-22T05:53:29.641Z, 38.73
2022-08-22T05:54:33.677Z, 38.71
2022-08-22T05:55:29.713Z, 38.62
2022-08-22T05:56:29.713Z, 38.60
2022-08-22T05:57:29.750Z, 38.60
2022-08-22T05:58:29.768Z, 38.51
2022-08-22T05:59:29.799Z, 38.59
2022-08-22T06:00:29.993Z, 38.64
2022-08-22T06:01:29.995Z, 38.54
2022-08-22T06:02:29.915Z, 38.67
2022-08-22T06:03:29.924Z, 38.81
2022-08-22T06:04:29.979Z, 38.74
2022-08-22T06:05:30.049Z, 38.67
2022-08-22T06:06:30.030Z, 38.74
2022-08-22T06:07:30.062Z, 38.77
2022-08-22T06:08:30.077Z, 38.75
2022-08-22T06:09:35.264Z, 38.57
2022-08-22T06:10:30.160Z, 38.84
2022-08-22T06:11:33.940Z, 38.91
2022-08-22T06:12:30.272Z, 38.85
2022-08-22T06:13:30.270Z, 38.76
2022-08-22T06:14:30.293Z, 38.73
2022-08-22T06:15:30.325Z, 38.72
2022-08-22T06:16:30.400Z, 38.83
2022-08-22T06:17:30.380Z, 38.76
2022-08-22T06:18:30.389Z, 38.98
2022-08-22T06:19:30.456Z, 38.82
2022-08-22T06:20:30.465Z, 38.76
2022-08-22T06:21:34.956Z, 38.85
2022-08-22T06:22:30.530Z, 38.88
2022-08-22T06:23:30.596Z, 38.80
2022-08-22T06:24:30.589Z, 38.92
2022-08-22T06:25:30.620Z, 39.06
2022-08-22T06:26:30.651Z, 38.94
2022-08-22T06:27:31.389Z, 39.14
2022-08-22T06:28:30.779Z, 39.16
2022-08-22T06:29:30.743Z, 38.97
2022-08-22T06:30:30.786Z, 38.88
2022-08-22T06:31:30.798Z, 39.10
2022-08-22T06:32:44.578Z, 39.09
2022-08-22T06:33:30.869Z, 39.00
2022-08-22T06:34:30.867Z, 39.01
2022-08-22T06:35:30.907Z, 39.17
2022-08-22T06:36:30.958Z, 39.20
2022-08-22T06:37:30.987Z, 39.12
2022-08-22T06:38:31.016Z, 38.96
2022-08-22T06:39:31.099Z, 39.04
2022-08-22T06:40:31.136Z, 39.11
2022-08-22T06:41:31.156Z, 39.16
2022-08-22T06:42:31.147Z, 39.10
2022-08-22T06:43:31.194Z, 39.24
2022-08-22T06:44:31.245Z, 38.99
2022-08-22T06:45:31.246Z, 39.21
2022-08-22T06:46:31.263Z, 39.06
2022-08-22T06:47:31.293Z, 39.05
2022-08-22T06:48:31.388Z, 39.15
2022-08-22T06:49:31.365Z, 39.13
2022-08-22T06:50:31.406Z, 39.27
2022-08-22T06:51:31.484Z, 39.19
2022-08-22T06:52:31.465Z, 39.31
2022-08-22T06:53:31.542Z, 39.19
2022-08-22T06:54:34.349Z, 39.24
2022-08-22T06:55:31.626Z, 39.25
2022-08-22T06:56:31.610Z, 39.18
2022-08-22T06:57:31.639Z, 39.31
2022-08-22T06:58:34.117Z, 39.25
2022-08-22T06:59:31.681Z, 39.40
2022-08-22T07:00:31.744Z, 39.13
2022-08-22T07:01:31.830Z, 39.22
2022-08-22T07:02:31.865Z, 39.34
2022-08-22T07:03:31.847Z, 39.32
2022-08-22T07:04:31.867Z, 39.56
2022-08-22T07:05:31.923Z, 39.22
2022-08-22T07:06:31.985Z, 39.30
2022-08-22T07:07:32.008Z, 39.25
2022-08-22T07:08:35.998Z, 39.23
2022-08-22T07:09:32.076Z, 39.43
2022-08-22T07:10:32.090Z, 39.34
2022-08-22T07:11:32.113Z, 39.34
2022-08-22T07:12:32.215Z, 39.28
2022-08-22T07:13:32.179Z, 39.39
2022-08-22T07:14:32.251Z, 39.69
2022-08-22T07:15:32.271Z, 39.53
2022-08-22T07:16:32.263Z, 39.40
2022-08-22T07:17:32.345Z, 39.78
2022-08-22T07:18:32.409Z, 39.41
2022-08-22T07:19:32.426Z, 39.65
2022-08-22T07:20:32.416Z, 39.69
2022-08-22T07:21:34.267Z, 39.54
2022-08-22T07:22:32.493Z, 39.55
2022-08-22T07:23:32.523Z, 39.55
2022-08-22T07:24:32.582Z, 39.48
2022-08-22T07:25:32.597Z, 39.63
2022-08-22T07:26:32.623Z, 39.51
2022-08-22T07:27:32.644Z, 39.79
2022-08-22T07:28:36.881Z, 39.58
2022-08-22T07:29:32.701Z, 39.50
2022-08-22T07:30:32.756Z, 39.58
2022-08-22T07:31:32.823Z, 39.62
2022-08-22T07:32:32.810Z, 39.46
2022-08-22T07:33:32.820Z, 39.66
2022-08-22T07:34:32.857Z, 39.54
2022-08-22T07:35:32.888Z, 39.37
2022-08-22T07:36:32.916Z, 40.08
2022-08-22T07:37:32.950Z, 39.91
2022-08-22T07:38:32.998Z, 39.94
2022-08-22T07:39:33.616Z, 40.08
2022-08-22T07:40:33.055Z, 39.87
2022-08-22T07:41:33.072Z, 39.68
2022-08-22T07:42:33.131Z, 39.80
2022-08-22T07:43:33.139Z, 39.60
2022-08-22T07:44:33.187Z, 39.51
2022-08-22T07:45:33.237Z, 39.65
2022-08-22T07:46:33.335Z, 39.46
2022-08-22T07:47:33.309Z, 39.80
2022-08-22T07:48:33.399Z, 39.90
2022-08-22T07:49:33.368Z, 39.62
2022-08-22T07:50:33.452Z, 39.87
2022-08-22T07:51:33.423Z, 39.70
2022-08-22T07:52:33.459Z, 40.07
2022-08-22T07:53:33.539Z, 39.94
2022-08-22T07:54:33.590Z, 40.06
2022-08-22T07:55:33.624Z, 40.27
2022-08-22T07:56:33.607Z, 39.65
2022-08-22T07:57:33.620Z, 40.12
2022-08-22T07:58:33.640Z, 40.20
2022-08-22T07:59:33.730Z, 40.08
2022-08-22T08:00:33.734Z, 39.85
2022-08-22T08:01:33.844Z, 39.71
2022-08-22T08:02:33.792Z, 39.73
2022-08-22T08:03:33.835Z, 40.02
2022-08-22T08:04:38.118Z, 39.96
2022-08-22T08:05:33.895Z, 40.04
2022-08-22T08:06:34.004Z, 39.97
2022-08-22T08:07:34.046Z, 40.11
2022-08-22T08:08:34.057Z, 40.32
2022-08-22T08:09:34.046Z, 40.33
2022-08-22T08:10:34.086Z, 40.27
2022-08-22T08:11:34.103Z, 39.89
2022-08-22T08:12:34.135Z, 40.18
2022-08-22T08:13:34.167Z, 39.97
2022-08-22T08:14:34.196Z, 40.01
2022-08-22T08:15:34.235Z, 39.88
2022-08-22T08:16:34.266Z, 40.13
2022-08-22T08:17:34.301Z, 40.05
2022-08-22T08:18:34.312Z, 40.16
2022-08-22T08:19:34.350Z, 39.92
2022-08-22T08:20:34.391Z, 40.25
2022-08-22T08:21:34.408Z, 40.31
2022-08-22T08:22:34.499Z, 39.78
2022-08-22T08:23:39.023Z, 39.93
2022-08-22T08:24:40.637Z, 40.11
2022-08-22T08:25:34.630Z, 40.35
2022-08-22T08:26:34.609Z, 40.27
2022-08-22T08:27:34.610Z, 40.06
2022-08-22T08:28:34.835Z, 40.38
2022-08-22T08:29:34.698Z, 40.40
2022-08-22T08:30:34.779Z, 39.97
2022-08-22T08:31:34.818Z, 40.00
2022-08-22T08:32:34.862Z, 40.07
2022-08-22T08:33:34.887Z, 40.08
2022-08-22T08:34:35.502Z, 39.96
2022-08-22T08:35:42.233Z, 40.04
2022-08-22T08:36:34.983Z, 39.93
2022-08-22T08:37:34.992Z, 39.84
2022-08-22T08:38:35.010Z, 40.22
2022-08-22T08:39:35.614Z, 40.31
2022-08-22T08:40:35.088Z, 40.33
2022-08-22T08:41:35.108Z, 40.12
2022-08-22T08:42:35.204Z, 40.37
2022-08-22T08:43:35.174Z, 40.02
2022-08-22T08:44:35.214Z, 40.26
2022-08-22T08:45:35.251Z, 40.13
2022-08-22T08:46:35.273Z, 39.98
2022-08-22T08:47:35.316Z, 39.97
2022-08-22T08:48:35.391Z, 40.22
2022-08-22T08:49:35.372Z, 40.48
2022-08-22T08:50:35.456Z, 40.14
2022-08-22T08:51:35.443Z, 40.15
2022-08-22T08:52:35.465Z, 40.05
2022-08-22T08:53:35.547Z, 39.94
2022-08-22T08:54:35.547Z, 40.22
2022-08-22T08:55:35.569Z, 40.33
2022-08-22T08:56:35.628Z, 39.93
2022-08-22T08:57:35.621Z, 39.74
2022-08-22T08:58:35.650Z, 40.46
2022-08-22T08:59:35.694Z, 40.01
2022-08-22T09:00:35.747Z, 40.53
2022-08-22T09:01:35.862Z, 40.25
2022-08-22T09:02:35.812Z, 40.00
2022-08-22T09:03:35.832Z, 39.75
2022-08-22T09:04:35.862Z, 40.32
2022-08-22T09:05:35.977Z, 40.73
2022-08-22T09:06:35.976Z, 40.20
2022-08-22T09:07:35.989Z, 40.06
2022-08-22T09:08:36.086Z, 40.23
2022-08-22T09:09:36.075Z, 40.12
2022-08-22T09:10:36.095Z, 40.03
2022-08-22T09:11:36.103Z, 40.04
2022-08-22T09:12:36.141Z, 40.47
2022-08-22T09:13:40.910Z, 40.33
2022-08-22T09:14:36.282Z, 39.93
2022-08-22T09:15:37.598Z, 39.86
2022-08-22T09:16:36.302Z, 37.47
2022-08-22T09:17:36.331Z, 37.36
2022-08-22T09:18:36.367Z, 36.99
2022-08-22T09:19:36.451Z, 36.99
2022-08-22T09:20:36.437Z, 37.34
2022-08-22T09:21:36.485Z, 37.42
2022-08-22T09:22:50.823Z, 37.26
2022-08-22T09:23:36.611Z, 37.18
2022-08-22T09:24:36.603Z, 37.31
2022-08-22T09:25:38.608Z, 37.41
2022-08-22T09:26:36.688Z, 36.85
2022-08-22T09:27:36.677Z, 36.93
2022-08-22T09:28:36.716Z, 36.97
2022-08-22T09:29:54.597Z, 37.05
2022-08-22T09:30:36.840Z, 37.53
2022-08-22T09:32:36.864Z, 37.62
2022-08-22T09:33:36.954Z, 37.31
2022-08-22T09:34:36.939Z, 37.45
2022-08-22T09:35:36.958Z, 37.39
2022-08-22T09:36:36.996Z, 37.40
2022-08-22T09:37:37.072Z, 37.25
2022-08-22T09:38:37.062Z, 37.16
2022-08-22T09:39:37.148Z, 36.81
2022-08-22T09:40:15.704Z, 37.37
2022-08-22T09:40:37.158Z, 36.91
2022-08-22T09:41:37.208Z, 36.82
2022-08-22T09:42:37.178Z, 37.04
2022-08-22T09:43:37.662Z, 37.17
2022-08-22T09:44:39.777Z, 36.55
2022-08-22T09:45:37.285Z, 36.52
2022-08-22T09:46:37.294Z, 37.44
2022-08-22T09:47:39.252Z, 37.30
2022-08-22T09:48:37.372Z, 37.19
2022-08-22T09:49:37.385Z, 37.23
2022-08-22T09:50:37.428Z, 37.38
2022-08-22T09:51:37.541Z, 36.61
2022-08-22T09:52:37.533Z, 36.74
2022-08-22T09:53:37.669Z, 37.02
2022-08-22T09:54:37.584Z, 36.76
2022-08-22T09:55:37.693Z, 37.20
2022-08-22T09:56:37.678Z, 37.44
2022-08-22T09:57:37.673Z, 37.36
2022-08-22T09:58:40.827Z, 37.37
2022-08-22T09:59:37.781Z, 36.95
2022-08-22T10:00:37.798Z, 37.25
2022-08-22T10:01:37.830Z, 37.37
2022-08-22T10:02:43.238Z, 37.58
2022-08-22T10:03:37.926Z, 37.21
2022-08-22T10:04:37.904Z, 36.84
2022-08-22T10:05:44.092Z, 37.45
2022-08-22T10:06:37.974Z, 37.54
2022-08-22T10:07:38.017Z, 37.38
2022-08-22T10:08:38.105Z, 37.16
2022-08-22T10:09:38.075Z, 37.40
2022-08-22T10:10:38.226Z, 37.42
2022-08-22T10:11:38.849Z, 36.99
2022-08-22T10:12:38.243Z, 36.84
2022-08-22T10:13:38.217Z, 37.19
2022-08-22T10:14:38.262Z, 36.79
2022-08-22T10:15:38.306Z, 37.29
2022-08-22T10:16:38.335Z, 37.49
2022-08-22T10:17:40.983Z, 37.62
2022-08-22T10:18:44.047Z, 37.34
2022-08-22T10:19:38.427Z, 37.23
2022-08-22T10:20:38.501Z, 37.42
2022-08-22T10:21:39.684Z, 37.68
2022-08-22T10:22:38.577Z, 37.63
2022-08-22T10:23:38.630Z, 37.34
2022-08-22T10:24:43.926Z, 37.46
2022-08-22T10:25:41.673Z, 37.52
2022-08-22T10:26:39.100Z, 37.73
2022-08-22T10:27:38.714Z, 37.73
2022-08-22T10:28:38.748Z, 37.86
2022-08-22T10:29:38.786Z, 37.47
2022-08-22T10:30:38.824Z, 37.40
2022-08-22T10:31:57.079Z, 37.45
2022-08-22T10:32:38.913Z, 37.04
2022-08-22T10:33:39.819Z, 37.48
2022-08-22T10:34:38.939Z, 37.11
2022-08-22T10:35:38.968Z, 37.28
2022-08-22T10:36:39.025Z, 36.86
2022-08-22T10:37:39.476Z, 37.48
2022-08-22T10:38:46.363Z, 37.34
2022-08-22T10:39:39.185Z, 36.70
2022-08-22T10:40:39.175Z, 37.11
2022-08-22T10:41:39.192Z, 36.97
2022-08-22T10:42:39.215Z, 37.09
2022-08-22T10:43:39.237Z, 36.88
2022-08-22T10:44:39.321Z, 37.23
2022-08-22T10:45:39.341Z, 37.32
2022-08-22T10:46:39.410Z, 37.44
2022-08-22T10:47:39.486Z, 37.61
2022-08-22T10:48:39.470Z, 37.54
2022-08-22T10:49:39.493Z, 36.78
2022-08-22T10:50:39.520Z, 37.36
2022-08-22T10:51:39.535Z, 37.39
2022-08-22T10:52:39.561Z, 37.70
2022-08-22T10:53:39.672Z, 37.62
2022-08-22T10:54:39.692Z, 37.34
2022-08-22T10:55:39.704Z, 37.39
2022-08-22T10:56:40.594Z, 37.67
2022-08-22T10:57:39.848Z, 37.69
2022-08-22T10:58:39.811Z, 37.59
2022-08-22T10:59:39.877Z, 37.12
2022-08-22T11:00:46.252Z, 36.96
2022-08-22T11:01:42.046Z, 37.15
2022-08-22T11:02:42.409Z, 37.67
2022-08-22T11:03:40.057Z, 37.36
2022-08-22T11:04:40.030Z, 37.74
2022-08-22T11:05:40.086Z, 37.71
2022-08-22T11:06:40.136Z, 37.42
2022-08-22T11:07:40.141Z, 37.80
2022-08-22T11:08:40.158Z, 37.58
2022-08-22T11:09:40.235Z, 37.52
2022-08-22T11:10:40.240Z, 37.26
2022-08-22T11:11:40.325Z, 37.55
2022-08-22T11:12:41.759Z, 37.43
2022-08-22T11:13:42.301Z, 37.63
2022-08-22T11:14:40.356Z, 37.86
2022-08-22T11:15:40.414Z, 37.63
2022-08-22T11:16:41.772Z, 37.71
2022-08-22T11:17:44.786Z, 37.56
2022-08-22T11:18:40.464Z, 37.62
2022-08-22T11:19:40.486Z, 37.46
2022-08-22T11:20:40.541Z, 37.40
2022-08-22T11:21:40.575Z, 37.43
2022-08-22T11:22:40.603Z, 37.51
2022-08-22T11:23:40.650Z, 37.56
2022-08-22T11:24:54.031Z, 37.46
2022-08-22T11:25:40.740Z, 37.64
2022-08-22T11:26:46.690Z, 37.65
2022-08-22T11:27:40.963Z, 37.81
2022-08-22T11:28:40.793Z, 37.62
2022-08-22T11:29:41.325Z, 37.53
2022-08-22T11:30:44.657Z, 37.59
2022-08-22T11:31:47.295Z, 37.44
2022-08-22T11:32:40.873Z, 37.85
2022-08-22T11:33:47.220Z, 37.77
2022-08-22T11:34:40.970Z, 37.50
2022-08-22T11:35:41.000Z, 37.45
2022-08-22T11:36:41.010Z, 37.60
2022-08-22T11:37:43.276Z, 37.50
2022-08-22T11:38:41.127Z, 37.45
2022-08-22T11:39:41.203Z, 37.67
2022-08-22T11:40:41.503Z, 37.62
2022-08-22T11:41:41.161Z, 37.71
2022-08-22T11:42:47.737Z, 37.19
2022-08-22T11:43:41.249Z, 37.28
2022-08-22T11:44:50.513Z, 37.56
2022-08-22T11:45:41.343Z, 37.55
2022-08-22T11:46:41.395Z, 37.29
2022-08-22T11:47:41.369Z, 37.56
2022-08-22T11:48:41.410Z, 37.68
2022-08-22T11:49:41.432Z, 37.71
2022-08-22T11:50:42.263Z, 37.13
2022-08-22T11:51:41.557Z, 37.57
2022-08-22T11:52:41.536Z, 37.68
2022-08-22T11:53:41.582Z, 37.46
2022-08-22T11:54:42.266Z, 36.83
2022-08-22T11:55:41.651Z, 37.59
2022-08-22T11:56:41.808Z, 37.62
2022-08-22T11:57:44.461Z, 36.87
2022-08-22T11:58:41.741Z, 37.21
2022-08-22T11:59:43.198Z, 37.37
2022-08-22T12:00:41.856Z, 37.58
2022-08-22T12:01:41.913Z, 37.24
2022-08-22T12:02:41.950Z, 37.58
2022-08-22T12:03:41.949Z, 37.42
2022-08-22T12:04:42.528Z, 37.10
2022-08-22T12:05:41.977Z, 37.20
2022-08-22T12:06:42.014Z, 36.93
2022-08-22T12:07:44.412Z, 37.82
2022-08-22T12:08:42.145Z, 37.65
2022-08-22T12:09:42.137Z, 37.36
2022-08-22T12:10:42.207Z, 37.50
2022-08-22T12:11:42.210Z, 37.54
2022-08-22T12:12:42.348Z, 37.81
2022-08-22T12:13:42.331Z, 37.45
2022-08-22T12:14:42.814Z, 36.83
2022-08-22T12:15:42.336Z, 37.10
2022-08-22T12:16:42.345Z, 37.39
2022-08-22T12:17:55.188Z, 37.02
2022-08-22T12:18:42.401Z, 37.03
2022-08-22T12:20:05.609Z, 37.61
2022-08-22T12:20:45.445Z, 37.44
2022-08-22T12:21:42.523Z, 37.62
2022-08-22T12:22:44.373Z, 37.69